sensor_id;sensor_type;location;lat;lon;timestamp;P1;durP1;ratioP1;P2;durP2;ratioP2
8230;SDS011;4156;50.908;6.974;2022-07-23T00:00:34;12.37;;;8.63;;
8230;SDS011;4156;50.908;6.974;2022-07-23T00:03:00;11.90;;;7.90;;
8230;SDS011;4156;50.908;6.974;2022-07-23T00:05:25;10.27;;;8.10;;
8230;SDS011;4156;50.908;6.974;2022-07-23T00:07:51;15.37;;;9.50;;
8230;SDS011;4156;50.908;6.974;2022-07-23T00:10:16;12.93;;;7.90;;
8230;SDS011;4156;50.908;6.974;2022-07-23T00:12:42;13.73;;;8.90;;
8230;SDS011;4156;50.908;6.974;2022-07-23T00:15:08;12.77;;;8.50;;
8230;SDS011;4156;50.908;6.974;2022-07-23T00:17:34;13.93;;;9.13;;
8230;SDS011;4156;50.908;6.974;2022-07-23T00:20:00;11.90;;;7.77;;
8230;SDS011;4156;50.908;6.974;2022-07-23T00:22:26;13.83;;;8.43;;
8230;SDS011;4156;50.908;6.974;2022-07-23T00:24:54;9.50;;;7.13;;
8230;SDS011;4156;50.908;6.974;2022-07-23T00:27:20;11.87;;;7.97;;
8230;SDS011;4156;50.908;6.974;2022-07-23T00:29:45;10.10;;;7.17;;
8230;SDS011;4156;50.908;6.974;2022-07-23T00:32:11;9.13;;;7.17;;
8230;SDS011;4156;50.908;6.974;2022-07-23T00:34:36;8.73;;;6.40;;
8230;SDS011;4156;50.908;6.974;2022-07-23T00:37:02;9.63;;;6.73;;
8230;SDS011;4156;50.908;6.974;2022-07-23T00:39:28;9.60;;;6.47;;
8230;SDS011;4156;50.908;6.974;2022-07-23T00:41:53;9.13;;;7.07;;
8230;SDS011;4156;50.908;6.974;2022-07-23T00:44:21;9.77;;;7.10;;
8230;SDS011;4156;50.908;6.974;2022-07-23T00:46:49;12.90;;;7.70;;
8230;SDS011;4156;50.908;6.974;2022-07-23T00:49:19;11.03;;;7.07;;
8230;SDS011;4156;50.908;6.974;2022-07-23T00:51:49;10.97;;;7.77;;
8230;SDS011;4156;50.908;6.974;2022-07-23T00:54:15;11.13;;;6.60;;
8230;SDS011;4156;50.908;6.974;2022-07-23T00:56:45;10.80;;;6.33;;
8230;SDS011;4156;50.908;6.974;2022-07-23T00:59:11;7.93;;;5.90;;
8230;SDS011;4156;50.908;6.974;2022-07-23T01:01:38;7.70;;;5.33;;
8230;SDS011;4156;50.908;6.974;2022-07-23T01:04:03;6.77;;;5.43;;
8230;SDS011;4156;50.908;6.974;2022-07-23T01:06:30;7.67;;;5.03;;
8230;SDS011;4156;50.908;6.974;2022-07-23T01:09:00;7.07;;;4.90;;
8230;SDS011;4156;50.908;6.974;2022-07-23T01:11:25;8.23;;;4.70;;
8230;SDS011;4156;50.908;6.974;2022-07-23T01:13:51;6.97;;;4.97;;
8230;SDS011;4156;50.908;6.974;2022-07-23T01:16:16;7.23;;;4.73;;
8230;SDS011;4156;50.908;6.974;2022-07-23T01:18:42;8.17;;;4.57;;
8230;SDS011;4156;50.908;6.974;2022-07-23T01:21:08;9.20;;;5.63;;
8230;SDS011;4156;50.908;6.974;2022-07-23T01:23:37;9.77;;;5.60;;
8230;SDS011;4156;50.908;6.974;2022-07-23T01:26:03;8.67;;;6.40;;
8230;SDS011;4156;50.908;6.974;2022-07-23T01:28:29;7.63;;;6.07;;
8230;SDS011;4156;50.908;6.974;2022-07-23T01:30:54;10.23;;;6.13;;
8230;SDS011;4156;50.908;6.974;2022-07-23T01:33:20;8.03;;;5.97;;
8230;SDS011;4156;50.908;6.974;2022-07-23T01:35:45;8.63;;;5.53;;
8230;SDS011;4156;50.908;6.974;2022-07-23T01:38:11;11.93;;;6.13;;
8230;SDS011;4156;50.908;6.974;2022-07-23T01:40:36;8.07;;;5.87;;
8230;SDS011;4156;50.908;6.974;2022-07-23T01:43:02;7.13;;;6.10;;
8230;SDS011;4156;50.908;6.974;2022-07-23T01:45:27;8.40;;;5.53;;
8230;SDS011;4156;50.908;6.974;2022-07-23T01:47:53;10.53;;;6.67;;
8230;SDS011;4156;50.908;6.974;2022-07-23T01:50:18;11.97;;;7.33;;
8230;SDS011;4156;50.908;6.974;2022-07-23T01:52:44;12.83;;;7.20;;
8230;SDS011;4156;50.908;6.974;2022-07-23T01:55:09;10.87;;;6.70;;
8230;SDS011;4156;50.908;6.974;2022-07-23T01:57:35;10.80;;;6.80;;
8230;SDS011;4156;50.908;6.974;2022-07-23T02:00:01;11.43;;;7.73;;
8230;SDS011;4156;50.908;6.974;2022-07-23T02:02:27;11.43;;;7.37;;
8230;SDS011;4156;50.908;6.974;2022-07-23T02:04:52;11.03;;;7.67;;
8230;SDS011;4156;50.908;6.974;2022-07-23T02:07:18;12.97;;;7.70;;
8230;SDS011;4156;50.908;6.974;2022-07-23T02:09:43;10.27;;;6.80;;
8230;SDS011;4156;50.908;6.974;2022-07-23T02:12:09;8.57;;;6.33;;
8230;SDS011;4156;50.908;6.974;2022-07-23T02:14:34;13.13;;;7.60;;
8230;SDS011;4156;50.908;6.974;2022-07-23T02:17:00;10.93;;;7.43;;
8230;SDS011;4156;50.908;6.974;2022-07-23T02:19:25;10.77;;;6.83;;
8230;SDS011;4156;50.908;6.974;2022-07-23T02:21:51;10.17;;;7.53;;
8230;SDS011;4156;50.908;6.974;2022-07-23T02:24:17;13.50;;;8.10;;
8230;SDS011;4156;50.908;6.974;2022-07-23T02:26:43;12.70;;;7.97;;
8230;SDS011;4156;50.908;6.974;2022-07-23T02:29:08;12.50;;;8.40;;
8230;SDS011;4156;50.908;6.974;2022-07-23T02:31:34;11.97;;;7.07;;
8230;SDS011;4156;50.908;6.974;2022-07-23T02:34:00;10.43;;;6.80;;
8230;SDS011;4156;50.908;6.974;2022-07-23T02:36:26;10.13;;;7.77;;
8230;SDS011;4156;50.908;6.974;2022-07-23T02:38:52;10.40;;;7.43;;
8230;SDS011;4156;50.908;6.974;2022-07-23T02:41:18;10.67;;;6.90;;
8230;SDS011;4156;50.908;6.974;2022-07-23T02:43:43;9.57;;;7.43;;
8230;SDS011;4156;50.908;6.974;2022-07-23T02:46:09;10.47;;;7.07;;
8230;SDS011;4156;50.908;6.974;2022-07-23T02:48:35;10.00;;;7.27;;
8230;SDS011;4156;50.908;6.974;2022-07-23T02:51:00;11.77;;;7.20;;
8230;SDS011;4156;50.908;6.974;2022-07-23T02:53:26;11.40;;;7.47;;
8230;SDS011;4156;50.908;6.974;2022-07-23T02:55:51;10.83;;;7.80;;
8230;SDS011;4156;50.908;6.974;2022-07-23T02:58:17;11.73;;;7.77;;
8230;SDS011;4156;50.908;6.974;2022-07-23T03:00:43;12.00;;;8.10;;
8230;SDS011;4156;50.908;6.974;2022-07-23T03:03:08;9.40;;;7.50;;
8230;SDS011;4156;50.908;6.974;2022-07-23T03:05:34;13.30;;;8.33;;
8230;SDS011;4156;50.908;6.974;2022-07-23T03:07:59;12.70;;;8.60;;
8230;SDS011;4156;50.908;6.974;2022-07-23T03:10:25;14.30;;;8.03;;
8230;SDS011;4156;50.908;6.974;2022-07-23T03:12:51;11.50;;;7.73;;
8230;SDS011;4156;50.908;6.974;2022-07-23T03:15:17;10.70;;;7.60;;
8230;SDS011;4156;50.908;6.974;2022-07-23T03:17:43;13.87;;;8.57;;
8230;SDS011;4156;50.908;6.974;2022-07-23T03:20:08;10.43;;;7.67;;
8230;SDS011;4156;50.908;6.974;2022-07-23T03:22:34;12.83;;;7.70;;
8230;SDS011;4156;50.908;6.974;2022-07-23T03:25:00;10.67;;;8.10;;
8230;SDS011;4156;50.908;6.974;2022-07-23T03:27:27;13.00;;;7.70;;
8230;SDS011;4156;50.908;6.974;2022-07-23T03:29:54;9.50;;;7.63;;
8230;SDS011;4156;50.908;6.974;2022-07-23T03:32:21;11.57;;;7.50;;
8230;SDS011;4156;50.908;6.974;2022-07-23T03:34:47;11.60;;;8.43;;
8230;SDS011;4156;50.908;6.974;2022-07-23T03:37:14;13.77;;;9.20;;
8230;SDS011;4156;50.908;6.974;2022-07-23T03:39:39;12.50;;;8.33;;
8230;SDS011;4156;50.908;6.974;2022-07-23T03:42:05;13.67;;;9.17;;
8230;SDS011;4156;50.908;6.974;2022-07-23T03:44:31;11.40;;;8.20;;
8230;SDS011;4156;50.908;6.974;2022-07-23T03:46:57;13.53;;;8.83;;
8230;SDS011;4156;50.908;6.974;2022-07-23T03:49:23;12.70;;;8.50;;
8230;SDS011;4156;50.908;6.974;2022-07-23T03:51:48;15.60;;;9.53;;
8230;SDS011;4156;50.908;6.974;2022-07-23T03:54:14;17.27;;;10.43;;
8230;SDS011;4156;50.908;6.974;2022-07-23T03:56:40;14.10;;;9.17;;
8230;SDS011;4156;50.908;6.974;2022-07-23T03:59:05;14.50;;;9.40;;
8230;SDS011;4156;50.908;6.974;2022-07-23T04:01:31;18.30;;;10.77;;
8230;SDS011;4156;50.908;6.974;2022-07-23T04:03:57;13.40;;;9.23;;
8230;SDS011;4156;50.908;6.974;2022-07-23T04:06:22;13.57;;;9.03;;
8230;SDS011;4156;50.908;6.974;2022-07-23T04:08:48;14.03;;;9.33;;
8230;SDS011;4156;50.908;6.974;2022-07-23T04:11:13;15.40;;;9.10;;
8230;SDS011;4156;50.908;6.974;2022-07-23T04:13:39;14.13;;;9.37;;
8230;SDS011;4156;50.908;6.974;2022-07-23T04:16:05;15.80;;;10.07;;
8230;SDS011;4156;50.908;6.974;2022-07-23T04:18:31;18.30;;;10.93;;
8230;SDS011;4156;50.908;6.974;2022-07-23T04:20:57;16.17;;;10.13;;
8230;SDS011;4156;50.908;6.974;2022-07-23T04:23:22;15.27;;;10.63;;
8230;SDS011;4156;50.908;6.974;2022-07-23T04:25:48;17.70;;;10.20;;
8230;SDS011;4156;50.908;6.974;2022-07-23T04:28:14;14.20;;;10.07;;
8230;SDS011;4156;50.908;6.974;2022-07-23T04:30:39;16.90;;;10.40;;
8230;SDS011;4156;50.908;6.974;2022-07-23T04:33:05;17.57;;;9.37;;
8230;SDS011;4156;50.908;6.974;2022-07-23T04:35:32;17.17;;;11.77;;
8230;SDS011;4156;50.908;6.974;2022-07-23T04:37:58;17.07;;;10.13;;
8230;SDS011;4156;50.908;6.974;2022-07-23T04:40:24;16.50;;;10.87;;
8230;SDS011;4156;50.908;6.974;2022-07-23T04:42:50;15.47;;;9.90;;
8230;SDS011;4156;50.908;6.974;2022-07-23T04:45:15;16.97;;;9.87;;
8230;SDS011;4156;50.908;6.974;2022-07-23T04:47:41;14.80;;;9.80;;
8230;SDS011;4156;50.908;6.974;2022-07-23T04:50:06;15.47;;;9.73;;
8230;SDS011;4156;50.908;6.974;2022-07-23T04:52:32;18.53;;;9.93;;
8230;SDS011;4156;50.908;6.974;2022-07-23T04:54:57;17.43;;;10.53;;
8230;SDS011;4156;50.908;6.974;2022-07-23T04:57:23;15.30;;;9.83;;
8230;SDS011;4156;50.908;6.974;2022-07-23T04:59:48;16.20;;;9.40;;
8230;SDS011;4156;50.908;6.974;2022-07-23T05:02:14;16.90;;;10.03;;
8230;SDS011;4156;50.908;6.974;2022-07-23T05:04:39;16.57;;;10.43;;
8230;SDS011;4156;50.908;6.974;2022-07-23T05:07:05;15.43;;;10.47;;
8230;SDS011;4156;50.908;6.974;2022-07-23T05:09:30;14.30;;;10.37;;
8230;SDS011;4156;50.908;6.974;2022-07-23T05:11:57;16.50;;;10.53;;
8230;SDS011;4156;50.908;6.974;2022-07-23T05:14:22;15.73;;;9.90;;
8230;SDS011;4156;50.908;6.974;2022-07-23T05:16:48;16.10;;;9.40;;
8230;SDS011;4156;50.908;6.974;2022-07-23T05:19:13;16.03;;;10.10;;
8230;SDS011;4156;50.908;6.974;2022-07-23T05:21:39;15.53;;;9.30;;
8230;SDS011;4156;50.908;6.974;2022-07-23T05:24:05;13.93;;;10.17;;
8230;SDS011;4156;50.908;6.974;2022-07-23T05:26:30;15.20;;;9.97;;
8230;SDS011;4156;50.908;6.974;2022-07-23T05:28:56;15.23;;;9.67;;
8230;SDS011;4156;50.908;6.974;2022-07-23T05:31:21;16.50;;;9.67;;
8230;SDS011;4156;50.908;6.974;2022-07-23T05:33:47;18.73;;;10.37;;
8230;SDS011;4156;50.908;6.974;2022-07-23T05:36:13;17.63;;;10.60;;
8230;SDS011;4156;50.908;6.974;2022-07-23T05:38:38;17.63;;;10.97;;
8230;SDS011;4156;50.908;6.974;2022-07-23T05:41:04;13.53;;;9.60;;
8230;SDS011;4156;50.908;6.974;2022-07-23T05:43:30;18.70;;;11.87;;
8230;SDS011;4156;50.908;6.974;2022-07-23T05:45:55;18.43;;;10.23;;
8230;SDS011;4156;50.908;6.974;2022-07-23T05:48:21;20.03;;;10.43;;
8230;SDS011;4156;50.908;6.974;2022-07-23T05:50:46;16.50;;;9.93;;
8230;SDS011;4156;50.908;6.974;2022-07-23T05:53:12;16.47;;;9.83;;
8230;SDS011;4156;50.908;6.974;2022-07-23T05:55:38;13.90;;;9.60;;
8230;SDS011;4156;50.908;6.974;2022-07-23T05:58:04;17.00;;;10.43;;
8230;SDS011;4156;50.908;6.974;2022-07-23T06:00:30;13.30;;;8.93;;
8230;SDS011;4156;50.908;6.974;2022-07-23T06:02:55;15.87;;;9.73;;
8230;SDS011;4156;50.908;6.974;2022-07-23T06:05:21;14.33;;;9.43;;
8230;SDS011;4156;50.908;6.974;2022-07-23T06:07:47;15.70;;;10.40;;
8230;SDS011;4156;50.908;6.974;2022-07-23T06:10:13;17.80;;;10.00;;
8230;SDS011;4156;50.908;6.974;2022-07-23T06:12:38;13.67;;;8.47;;
8230;SDS011;4156;50.908;6.974;2022-07-23T06:15:04;18.90;;;10.37;;
8230;SDS011;4156;50.908;6.974;2022-07-23T06:17:30;14.57;;;10.03;;
8230;SDS011;4156;50.908;6.974;2022-07-23T06:19:56;15.53;;;9.50;;
8230;SDS011;4156;50.908;6.974;2022-07-23T06:22:21;10.93;;;7.10;;
8230;SDS011;4156;50.908;6.974;2022-07-23T06:24:48;11.40;;;7.37;;
8230;SDS011;4156;50.908;6.974;2022-07-23T06:27:16;12.30;;;6.63;;
8230;SDS011;4156;50.908;6.974;2022-07-23T06:29:42;11.10;;;8.10;;
8230;SDS011;4156;50.908;6.974;2022-07-23T06:32:08;11.87;;;7.10;;
8230;SDS011;4156;50.908;6.974;2022-07-23T06:34:34;10.93;;;7.47;;
8230;SDS011;4156;50.908;6.974;2022-07-23T06:36:59;13.30;;;7.67;;
8230;SDS011;4156;50.908;6.974;2022-07-23T06:39:25;13.23;;;7.37;;
8230;SDS011;4156;50.908;6.974;2022-07-23T06:41:51;12.07;;;7.23;;
8230;SDS011;4156;50.908;6.974;2022-07-23T06:44:17;10.43;;;7.10;;
8230;SDS011;4156;50.908;6.974;2022-07-23T06:46:43;10.20;;;5.43;;
8230;SDS011;4156;50.908;6.974;2022-07-23T06:49:08;8.63;;;5.97;;
8230;SDS011;4156;50.908;6.974;2022-07-23T06:51:34;11.93;;;7.07;;
8230;SDS011;4156;50.908;6.974;2022-07-23T06:53:59;10.17;;;6.40;;
8230;SDS011;4156;50.908;6.974;2022-07-23T06:56:25;10.13;;;6.90;;
8230;SDS011;4156;50.908;6.974;2022-07-23T06:58:51;11.13;;;7.57;;
8230;SDS011;4156;50.908;6.974;2022-07-23T07:01:16;8.57;;;5.60;;
8230;SDS011;4156;50.908;6.974;2022-07-23T07:03:42;9.73;;;5.10;;
8230;SDS011;4156;50.908;6.974;2022-07-23T07:06:08;8.90;;;6.37;;
8230;SDS011;4156;50.908;6.974;2022-07-23T07:08:33;10.07;;;6.30;;
8230;SDS011;4156;50.908;6.974;2022-07-23T07:10:59;10.67;;;6.30;;
8230;SDS011;4156;50.908;6.974;2022-07-23T07:13:24;8.43;;;4.90;;
8230;SDS011;4156;50.908;6.974;2022-07-23T07:15:50;7.63;;;5.87;;
8230;SDS011;4156;50.908;6.974;2022-07-23T07:18:15;9.00;;;5.60;;
8230;SDS011;4156;50.908;6.974;2022-07-23T07:20:41;8.00;;;5.20;;
8230;SDS011;4156;50.908;6.974;2022-07-23T07:23:07;8.53;;;6.17;;
8230;SDS011;4156;50.908;6.974;2022-07-23T07:25:32;7.97;;;5.10;;
8230;SDS011;4156;50.908;6.974;2022-07-23T07:27:58;7.40;;;4.37;;
8230;SDS011;4156;50.908;6.974;2022-07-23T07:30:23;7.85;;;5.47;;
8230;SDS011;4156;50.908;6.974;2022-07-23T07:32:49;11.00;;;6.10;;
8230;SDS011;4156;50.908;6.974;2022-07-23T07:35:14;6.37;;;4.30;;
8230;SDS011;4156;50.908;6.974;2022-07-23T07:37:40;7.63;;;4.90;;
8230;SDS011;4156;50.908;6.974;2022-07-23T07:40:06;7.87;;;4.90;;
8230;SDS011;4156;50.908;6.974;2022-07-23T07:42:32;6.43;;;4.33;;
8230;SDS011;4156;50.908;6.974;2022-07-23T07:44:58;6.37;;;4.20;;
8230;SDS011;4156;50.908;6.974;2022-07-23T07:47:24;6.93;;;4.27;;
8230;SDS011;4156;50.908;6.974;2022-07-23T07:49:49;5.27;;;4.03;;
8230;SDS011;4156;50.908;6.974;2022-07-23T07:52:15;7.37;;;4.30;;
8230;SDS011;4156;50.908;6.974;2022-07-23T07:54:40;7.83;;;5.63;;
8230;SDS011;4156;50.908;6.974;2022-07-23T07:57:06;7.63;;;4.73;;
8230;SDS011;4156;50.908;6.974;2022-07-23T07:59:31;7.07;;;4.50;;
8230;SDS011;4156;50.908;6.974;2022-07-23T08:01:57;5.97;;;4.03;;
8230;SDS011;4156;50.908;6.974;2022-07-23T08:04:22;8.67;;;5.73;;
8230;SDS011;4156;50.908;6.974;2022-07-23T08:06:48;10.87;;;6.37;;
8230;SDS011;4156;50.908;6.974;2022-07-23T08:09:13;10.70;;;6.37;;
8230;SDS011;4156;50.908;6.974;2022-07-23T08:11:39;10.33;;;6.10;;
8230;SDS011;4156;50.908;6.974;2022-07-23T08:14:04;9.37;;;6.50;;
8230;SDS011;4156;50.908;6.974;2022-07-23T08:16:30;8.57;;;6.20;;
8230;SDS011;4156;50.908;6.974;2022-07-23T08:18:56;13.70;;;6.80;;
8230;SDS011;4156;50.908;6.974;2022-07-23T08:21:21;7.67;;;4.80;;
8230;SDS011;4156;50.908;6.974;2022-07-23T08:23:47;7.03;;;4.80;;
8230;SDS011;4156;50.908;6.974;2022-07-23T08:26:12;6.43;;;4.70;;
8230;SDS011;4156;50.908;6.974;2022-07-23T08:28:38;6.97;;;5.33;;
8230;SDS011;4156;50.908;6.974;2022-07-23T08:31:04;6.70;;;6.00;;
8230;SDS011;4156;50.908;6.974;2022-07-23T08:33:30;5.60;;;4.37;;
8230;SDS011;4156;50.908;6.974;2022-07-23T08:35:56;5.37;;;4.33;;
8230;SDS011;4156;50.908;6.974;2022-07-23T08:38:22;8.23;;;5.87;;
8230;SDS011;4156;50.908;6.974;2022-07-23T08:40:48;7.57;;;5.03;;
8230;SDS011;4156;50.908;6.974;2022-07-23T08:43:20;4.97;;;4.27;;
8230;SDS011;4156;50.908;6.974;2022-07-23T08:45:48;7.90;;;5.40;;
8230;SDS011;4156;50.908;6.974;2022-07-23T08:48:15;5.87;;;4.10;;
8230;SDS011;4156;50.908;6.974;2022-07-23T08:50:43;6.27;;;4.63;;
8230;SDS011;4156;50.908;6.974;2022-07-23T08:53:12;4.73;;;4.13;;
8230;SDS011;4156;50.908;6.974;2022-07-23T08:55:38;5.13;;;4.00;;
8230;SDS011;4156;50.908;6.974;2022-07-23T08:58:04;5.87;;;4.20;;
8230;SDS011;4156;50.908;6.974;2022-07-23T09:00:30;8.47;;;5.73;;
8230;SDS011;4156;50.908;6.974;2022-07-23T09:02:56;6.07;;;4.17;;
8230;SDS011;4156;50.908;6.974;2022-07-23T09:05:22;5.67;;;4.23;;
8230;SDS011;4156;50.908;6.974;2022-07-23T09:08:02;6.60;;;3.70;;
8230;SDS011;4156;50.908;6.974;2022-07-23T09:18:28;5.73;;;4.40;;
8230;SDS011;4156;50.908;6.974;2022-07-23T09:21:05;8.77;;;6.57;;
8230;SDS011;4156;50.908;6.974;2022-07-23T09:23:55;5.60;;;4.50;;
8230;SDS011;4156;50.908;6.974;2022-07-23T09:29:05;6.10;;;4.10;;
8230;SDS011;4156;50.908;6.974;2022-07-23T09:31:38;6.70;;;4.97;;
8230;SDS011;4156;50.908;6.974;2022-07-23T09:34:17;4.93;;;4.07;;
8230;SDS011;4156;50.908;6.974;2022-07-23T09:36:43;4.60;;;4.10;;
8230;SDS011;4156;50.908;6.974;2022-07-23T09:39:09;5.70;;;3.87;;
8230;SDS011;4156;50.908;6.974;2022-07-23T09:41:40;5.83;;;5.23;;
8230;SDS011;4156;50.908;6.974;2022-07-23T09:44:28;7.77;;;4.13;;
8230;SDS011;4156;50.908;6.974;2022-07-23T09:46:57;6.53;;;4.67;;
8230;SDS011;4156;50.908;6.974;2022-07-23T09:49:25;3.93;;;3.47;;
8230;SDS011;4156;50.908;6.974;2022-07-23T09:51:52;7.73;;;4.27;;
8230;SDS011;4156;50.908;6.974;2022-07-23T09:54:27;5.43;;;4.27;;
8230;SDS011;4156;50.908;6.974;2022-07-23T09:56:56;8.13;;;5.30;;
8230;SDS011;4156;50.908;6.974;2022-07-23T09:59:24;5.20;;;4.23;;
8230;SDS011;4156;50.908;6.974;2022-07-23T10:01:53;6.63;;;4.90;;
8230;SDS011;4156;50.908;6.974;2022-07-23T10:04:21;4.77;;;4.20;;
8230;SDS011;4156;50.908;6.974;2022-07-23T10:06:48;6.63;;;4.40;;
8230;SDS011;4156;50.908;6.974;2022-07-23T10:09:17;5.43;;;4.73;;
8230;SDS011;4156;50.908;6.974;2022-07-23T10:11:48;10.33;;;4.80;;
8230;SDS011;4156;50.908;6.974;2022-07-23T10:14:15;8.00;;;5.60;;
8230;SDS011;4156;50.908;6.974;2022-07-23T10:16:41;7.93;;;5.30;;
8230;SDS011;4156;50.908;6.974;2022-07-23T10:19:07;7.87;;;5.07;;
8230;SDS011;4156;50.908;6.974;2022-07-23T10:21:40;6.60;;;4.83;;
8230;SDS011;4156;50.908;6.974;2022-07-23T10:24:16;7.37;;;5.17;;
8230;SDS011;4156;50.908;6.974;2022-07-23T10:26:52;7.77;;;6.10;;
8230;SDS011;4156;50.908;6.974;2022-07-23T10:29:50;7.33;;;5.00;;
8230;SDS011;4156;50.908;6.974;2022-07-23T10:32:33;6.73;;;5.57;;
8230;SDS011;4156;50.908;6.974;2022-07-23T10:40:57;7.27;;;5.03;;
8230;SDS011;4156;50.908;6.974;2022-07-23T10:43:24;6.70;;;5.10;;
8230;SDS011;4156;50.908;6.974;2022-07-23T10:45:50;7.00;;;5.57;;
8230;SDS011;4156;50.908;6.974;2022-07-23T10:50:44;10.40;;;5.77;;
8230;SDS011;4156;50.908;6.974;2022-07-23T10:56:16;8.80;;;5.23;;
8230;SDS011;4156;50.908;6.974;2022-07-23T10:59:05;6.30;;;4.93;;
8230;SDS011;4156;50.908;6.974;2022-07-23T11:01:38;5.63;;;4.87;;
8230;SDS011;4156;50.908;6.974;2022-07-23T11:04:04;5.00;;;3.93;;
8230;SDS011;4156;50.908;6.974;2022-07-23T11:17:25;4.53;;;3.03;;
8230;SDS011;4156;50.908;6.974;2022-07-23T11:25:09;4.20;;;3.03;;
8230;SDS011;4156;50.908;6.974;2022-07-23T11:30:06;5.00;;;2.87;;
8230;SDS011;4156;50.908;6.974;2022-07-23T11:32:39;6.43;;;3.57;;
8230;SDS011;4156;50.908;6.974;2022-07-23T11:35:18;4.93;;;2.97;;
8230;SDS011;4156;50.908;6.974;2022-07-23T11:37:50;4.73;;;3.50;;
8230;SDS011;4156;50.908;6.974;2022-07-23T11:40:19;4.87;;;4.00;;
8230;SDS011;4156;50.908;6.974;2022-07-23T11:43:18;4.50;;;3.10;;
8230;SDS011;4156;50.908;6.974;2022-07-23T11:45:38;5.13;;;3.00;;
8230;SDS011;4156;50.908;6.974;2022-07-23T11:48:20;5.37;;;3.20;;
8230;SDS011;4156;50.908;6.974;2022-07-23T11:50:48;3.10;;;2.57;;
8230;SDS011;4156;50.908;6.974;2022-07-23T11:53:25;4.07;;;3.43;;
8230;SDS011;4156;50.908;6.974;2022-07-23T11:55:53;3.60;;;3.10;;
8230;SDS011;4156;50.908;6.974;2022-07-23T11:58:20;4.57;;;3.23;;
8230;SDS011;4156;50.908;6.974;2022-07-23T12:00:45;3.23;;;2.80;;
8230;SDS011;4156;50.908;6.974;2022-07-23T12:03:11;3.83;;;3.00;;
8230;SDS011;4156;50.908;6.974;2022-07-23T12:05:37;4.67;;;3.50;;
8230;SDS011;4156;50.908;6.974;2022-07-23T12:08:04;3.83;;;3.27;;
8230;SDS011;4156;50.908;6.974;2022-07-23T12:10:41;4.50;;;3.27;;
8230;SDS011;4156;50.908;6.974;2022-07-23T12:13:12;5.73;;;3.20;;
8230;SDS011;4156;50.908;6.974;2022-07-23T12:15:50;2.90;;;2.60;;
8230;SDS011;4156;50.908;6.974;2022-07-23T12:18:18;3.37;;;2.87;;
8230;SDS011;4156;50.908;6.974;2022-07-23T12:20:47;3.53;;;2.80;;
8230;SDS011;4156;50.908;6.974;2022-07-23T12:23:16;4.10;;;3.10;;
8230;SDS011;4156;50.908;6.974;2022-07-23T12:25:44;3.70;;;2.87;;
8230;SDS011;4156;50.908;6.974;2022-07-23T12:28:12;5.37;;;3.17;;
8230;SDS011;4156;50.908;6.974;2022-07-23T12:30:53;3.67;;;3.10;;
8230;SDS011;4156;50.908;6.974;2022-07-23T12:35:56;8.27;;;3.50;;
8230;SDS011;4156;50.908;6.974;2022-07-23T12:38:24;3.80;;;3.13;;
8230;SDS011;4156;50.908;6.974;2022-07-23T12:40:55;3.30;;;2.70;;
8230;SDS011;4156;50.908;6.974;2022-07-23T12:43:26;3.47;;;3.03;;
8230;SDS011;4156;50.908;6.974;2022-07-23T12:45:54;4.97;;;3.33;;
8230;SDS011;4156;50.908;6.974;2022-07-23T12:53:24;2.60;;;2.40;;
8230;SDS011;4156;50.908;6.974;2022-07-23T12:55:59;3.67;;;2.60;;
8230;SDS011;4156;50.908;6.974;2022-07-23T12:58:26;5.57;;;2.60;;
8230;SDS011;4156;50.908;6.974;2022-07-23T13:01:04;3.10;;;2.37;;
8230;SDS011;4156;50.908;6.974;2022-07-23T13:03:31;2.80;;;2.20;;
8230;SDS011;4156;50.908;6.974;2022-07-23T13:05:59;3.00;;;2.60;;
8230;SDS011;4156;50.908;6.974;2022-07-23T13:08:27;4.80;;;2.47;;
8230;SDS011;4156;50.908;6.974;2022-07-23T13:10:54;3.43;;;2.37;;
8230;SDS011;4156;50.908;6.974;2022-07-23T13:13:23;3.87;;;2.20;;
8230;SDS011;4156;50.908;6.974;2022-07-23T13:15:50;2.73;;;2.40;;
8230;SDS011;4156;50.908;6.974;2022-07-23T13:18:17;3.37;;;2.50;;
8230;SDS011;4156;50.908;6.974;2022-07-23T13:20:43;3.50;;;2.57;;
8230;SDS011;4156;50.908;6.974;2022-07-23T13:23:10;3.60;;;2.65;;
8230;SDS011;4156;50.908;6.974;2022-07-23T13:25:36;3.73;;;2.40;;
8230;SDS011;4156;50.908;6.974;2022-07-23T13:28:02;3.08;;;2.72;;
8230;SDS011;4156;50.908;6.974;2022-07-23T13:30:28;3.20;;;2.40;;
8230;SDS011;4156;50.908;6.974;2022-07-23T13:32:53;3.53;;;2.75;;
8230;SDS011;4156;50.908;6.974;2022-07-23T13:35:19;3.57;;;2.20;;
8230;SDS011;4156;50.908;6.974;2022-07-23T13:37:45;2.30;;;1.80;;
8230;SDS011;4156;50.908;6.974;2022-07-23T13:40:10;2.65;;;2.08;;
8230;SDS011;4156;50.908;6.974;2022-07-23T13:42:36;2.78;;;2.00;;
8230;SDS011;4156;50.908;6.974;2022-07-23T13:45:03;2.67;;;2.40;;
8230;SDS011;4156;50.908;6.974;2022-07-23T13:47:29;2.70;;;2.20;;
8230;SDS011;4156;50.908;6.974;2022-07-23T13:49:55;3.40;;;2.08;;
8230;SDS011;4156;50.908;6.974;2022-07-23T13:52:21;4.03;;;2.35;;
8230;SDS011;4156;50.908;6.974;2022-07-23T13:54:46;2.95;;;2.20;;
8230;SDS011;4156;50.908;6.974;2022-07-23T13:57:12;2.88;;;1.98;;
8230;SDS011;4156;50.908;6.974;2022-07-23T13:59:37;2.55;;;1.98;;
8230;SDS011;4156;50.908;6.974;2022-07-23T14:02:03;3.60;;;2.20;;
8230;SDS011;4156;50.908;6.974;2022-07-23T14:04:29;2.17;;;1.70;;
8230;SDS011;4156;50.908;6.974;2022-07-23T14:06:55;2.85;;;1.80;;
8230;SDS011;4156;50.908;6.974;2022-07-23T14:09:21;3.17;;;2.45;;
8230;SDS011;4156;50.908;6.974;2022-07-23T14:11:47;2.38;;;2.17;;
8230;SDS011;4156;50.908;6.974;2022-07-23T14:14:12;3.37;;;2.57;;
8230;SDS011;4156;50.908;6.974;2022-07-23T14:16:38;3.45;;;2.08;;
8230;SDS011;4156;50.908;6.974;2022-07-23T14:19:04;2.73;;;2.10;;
8230;SDS011;4156;50.908;6.974;2022-07-23T14:21:29;4.17;;;2.23;;
8230;SDS011;4156;50.908;6.974;2022-07-23T14:23:55;2.92;;;2.30;;
8230;SDS011;4156;50.908;6.974;2022-07-23T14:26:20;2.22;;;1.90;;
8230;SDS011;4156;50.908;6.974;2022-07-23T14:28:46;2.35;;;2.10;;
8230;SDS011;4156;50.908;6.974;2022-07-23T14:31:12;3.08;;;2.30;;
8230;SDS011;4156;50.908;6.974;2022-07-23T14:33:37;2.90;;;2.28;;
8230;SDS011;4156;50.908;6.974;2022-07-23T14:36:03;4.10;;;2.10;;
8230;SDS011;4156;50.908;6.974;2022-07-23T14:38:28;2.60;;;2.10;;
8230;SDS011;4156;50.908;6.974;2022-07-23T14:40:55;2.42;;;2.17;;
8230;SDS011;4156;50.908;6.974;2022-07-23T14:43:21;2.40;;;1.98;;
8230;SDS011;4156;50.908;6.974;2022-07-23T14:45:47;2.38;;;2.10;;
8230;SDS011;4156;50.908;6.974;2022-07-23T14:48:13;2.37;;;1.90;;
8230;SDS011;4156;50.908;6.974;2022-07-23T14:50:38;3.63;;;2.33;;
8230;SDS011;4156;50.908;6.974;2022-07-23T14:53:04;3.17;;;2.30;;
8230;SDS011;4156;50.908;6.974;2022-07-23T14:55:33;2.57;;;2.00;;
8230;SDS011;4156;50.908;6.974;2022-07-23T14:57:59;2.15;;;1.95;;
8230;SDS011;4156;50.908;6.974;2022-07-23T15:00:25;3.47;;;2.00;;
8230;SDS011;4156;50.908;6.974;2022-07-23T15:02:51;2.10;;;1.90;;
8230;SDS011;4156;50.908;6.974;2022-07-23T15:05:17;2.67;;;2.03;;
8230;SDS011;4156;50.908;6.974;2022-07-23T15:07:43;2.45;;;2.15;;
8230;SDS011;4156;50.908;6.974;2022-07-23T15:10:08;2.42;;;2.00;;
8230;SDS011;4156;50.908;6.974;2022-07-23T15:12:34;2.25;;;2.05;;
8230;SDS011;4156;50.908;6.974;2022-07-23T15:14:59;2.40;;;2.00;;
8230;SDS011;4156;50.908;6.974;2022-07-23T15:17:25;2.47;;;1.77;;
8230;SDS011;4156;50.908;6.974;2022-07-23T15:19:50;3.28;;;2.38;;
8230;SDS011;4156;50.908;6.974;2022-07-23T15:22:16;4.05;;;2.13;;
8230;SDS011;4156;50.908;6.974;2022-07-23T15:24:42;2.83;;;2.00;;
8230;SDS011;4156;50.908;6.974;2022-07-23T15:27:08;4.03;;;2.30;;
8230;SDS011;4156;50.908;6.974;2022-07-23T15:29:33;2.67;;;2.03;;
8230;SDS011;4156;50.908;6.974;2022-07-23T15:31:59;2.65;;;2.20;;
8230;SDS011;4156;50.908;6.974;2022-07-23T15:34:25;2.20;;;2.00;;
8230;SDS011;4156;50.908;6.974;2022-07-23T15:36:51;2.67;;;2.17;;
8230;SDS011;4156;50.908;6.974;2022-07-23T15:39:17;2.85;;;2.05;;
8230;SDS011;4156;50.908;6.974;2022-07-23T15:41:43;2.65;;;1.92;;
8230;SDS011;4156;50.908;6.974;2022-07-23T15:44:08;2.40;;;1.80;;
8230;SDS011;4156;50.908;6.974;2022-07-23T15:46:34;2.15;;;1.90;;
8230;SDS011;4156;50.908;6.974;2022-07-23T15:48:59;2.22;;;2.03;;
8230;SDS011;4156;50.908;6.974;2022-07-23T15:51:25;1.92;;;1.70;;
8230;SDS011;4156;50.908;6.974;2022-07-23T15:53:50;2.20;;;2.00;;